Time;durP1;ratioP1;P1;durP2;ratioP2;P2;SDS_P1;SDS_P2;PMS_P1;PMS_P2;Temp;Humidity;BMP_temperature;BMP_pressure;BME280_temperature;BME280_humidity;BME280_pressure;Samples;Min_cycle;Max_cycle;Signal;HPM_P1;HPM_P2
2022/12/25 00:00:20;;;;;;;11.10;8.50;;;;;;;;;;108466;1269;42951;-35
2022/12/25 00:03:10;;;;;;;11.20;8.60;;;;;;;;;;108416;1260;44738;-35
2022/12/25 00:05:50;;;;;;;10.50;8.80;;;;;;;;;;108510;1254;40149;-35
2022/12/25 00:08:22;;;;;;;11.00;9.10;;;;;;;;;;108510;1269;41400;-35
2022/12/25 00:10:59;;;;;;;11.10;9.10;;;;;;;;;;107725;1264;894827;-35
2022/12/25 00:13:37;;;;;;;11.00;9.00;;;;;;;;;;108451;1260;41936;-35
2022/12/25 00:16:20;;;;;;;11.00;9.40;;;;;;;;;;108441;1254;39065;-35
2022/12/25 00:18:57;;;;;;;11.40;9.30;;;;;;;;;;108448;1270;41386;-35
2022/12/25 00:21:30;;;;;;;11.00;9.80;;;;;;;;;;108460;1271;43000;-35
2022/12/25 00:24:04;;;;;;;10.40;9.30;;;;;;;;;;108428;1258;41981;-35
2022/12/25 00:26:34;;;;;;;12.10;9.40;;;;;;;;;;108518;1257;38921;-35
2022/12/25 00:29:07;;;;;;;11.20;9.70;;;;;;;;;;108483;1271;39938;-35
2022/12/25 00:31:41;;;;;;;10.70;8.90;;;;;;;;;;108525;1265;43090;-35
2022/12/25 00:34:17;;;;;;;10.30;9.10;;;;;;;;;;108446;1259;41996;-35
2022/12/25 00:36:51;;;;;;;11.10;8.90;;;;;;;;;;108303;1270;175711;-35
2022/12/25 00:39:25;;;;;;;10.90;9.30;;;;;;;;;;108416;1271;39812;-35
2022/12/25 00:44:44;;;;;;;11.60;9.20;;;;;;;;;;108308;1260;175743;-35
2022/12/25 00:47:20;;;;;;;9.90;8.70;;;;;;;;;;108467;1267;38812;-35
2022/12/25 00:49:55;;;;;;;12.10;9.10;;;;;;;;;;108474;1271;40125;-35
2022/12/25 00:52:34;;;;;;;14.00;9.60;;;;;;;;;;108476;1267;42994;-35
2022/12/25 00:55:08;;;;;;;12.10;9.60;;;;;;;;;;108401;1260;41670;-35
2022/12/25 00:57:46;;;;;;;10.10;8.40;;;;;;;;;;108448;1254;38857;-35
2022/12/25 01:00:20;;;;;;;12.60;10.20;;;;;;;;;;108442;1260;40286;-35
2022/12/25 01:03:01;;;;;;;11.90;9.10;;;;;;;;;;108341;1266;175710;-35
2022/12/25 01:05:36;;;;;;;10.90;8.90;;;;;;;;;;108452;1260;41845;-35
2022/12/25 01:08:11;;;;;;;10.80;9.40;;;;;;;;;;108499;1270;39018;-35
2022/12/25 01:10:43;;;;;;;11.50;9.50;;;;;;;;;;108491;1260;40259;-35
2022/12/25 01:13:18;;;;;;;11.70;9.40;;;;;;;;;;108477;1267;42839;-34
2022/12/25 01:15:53;;;;;;;10.30;8.80;;;;;;;;;;108384;1259;42082;-34
2022/12/25 01:18:28;;;;;;;10.90;8.50;;;;;;;;;;108450;1260;38978;-34
2022/12/25 01:21:07;;;;;;;11.00;8.70;;;;;;;;;;108445;1266;40066;-34
2022/12/25 01:23:43;;;;;;;11.90;8.80;;;;;;;;;;108457;1261;43215;-34
2022/12/25 01:26:24;;;;;;;10.20;8.40;;;;;;;;;;108469;1257;41941;-34
2022/12/25 01:29:01;;;;;;;;;;;;;;;;;;108519;1270;39116;-34
2022/12/25 01:31:39;;;;;;;10.40;9.20;;;;;;;;;;108478;1267;40057;-34
2022/12/25 01:34:19;;;;;;;10.90;8.80;;;;;;;;;;108478;1260;43095;-34
2022/12/25 01:36:54;;;;;;;10.10;8.20;;;;;;;;;;108398;1260;41931;-34
2022/12/25 01:39:27;;;;;;;10.30;8.40;;;;;;;;;;108449;1260;38917;-34
2022/12/25 01:42:02;;;;;;;10.30;8.50;;;;;;;;;;108456;1267;40215;-34
2022/12/25 01:45:37;;;;;;;10.30;8.10;;;;;;;;;;108437;1270;42940;-34
2022/12/25 01:48:14;;;;;;;10.00;7.60;;;;;;;;;;108579;1258;48844;-34
2022/12/25 01:50:47;;;;;;;9.60;7.80;;;;;;;;;;108365;1259;175718;-34
2022/12/25 01:53:24;;;;;;;10.80;8.40;;;;;;;;;;108499;1270;40029;-34
2022/12/25 01:56:05;;;;;;;9.50;7.90;;;;;;;;;;108459;1264;43162;-34
2022/12/25 01:58:38;;;;;;;9.60;8.30;;;;;;;;;;108467;1267;47983;-34
2022/12/25 02:01:13;;;;;;;9.40;7.70;;;;;;;;;;107811;1267;894880;-34
2022/12/25 02:03:45;;;;;;;9.70;7.70;;;;;;;;;;108450;1264;39992;-34
2022/12/25 02:06:25;;;;;;;9.90;8.20;;;;;;;;;;108401;1261;42697;-34
2022/12/25 02:09:02;;;;;;;10.10;8.20;;;;;;;;;;108507;1262;50338;-34
2022/12/25 02:11:56;;;;;;;10.30;8.10;;;;;;;;;;108497;1267;39981;-34
2022/12/25 02:14:37;;;;;;;9.70;7.70;;;;;;;;;;108480;1267;40059;-34
2022/12/25 02:17:15;;;;;;;10.30;7.90;;;;;;;;;;108434;1254;42970;-34
2022/12/25 02:20:16;;;;;;;11.00;7.40;;;;;;;;;;108464;1266;41833;-34
2022/12/25 02:23:10;;;;;;;9.50;7.50;;;;;;;;;;108453;1260;38927;-34
2022/12/25 02:25:57;;;;;;;9.50;7.10;;;;;;;;;;108439;1260;40060;-34
2022/12/25 02:28:34;;;;;;;9.60;7.10;;;;;;;;;;108497;1257;42888;-34
2022/12/25 02:31:17;;;;;;;8.60;6.50;;;;;;;;;;108462;1269;43143;-34
2022/12/25 02:34:06;;;;;;;;;;;;;;;;;;108521;1266;38954;-34
2022/12/25 02:36:48;;;;;;;9.50;7.40;;;;;;;;;;108443;1270;40350;-34
2022/12/25 03:08:52;;;;;;;8.00;6.10;;;;;;;;;;108424;1258;38747;-34
2022/12/25 03:11:32;;;;;;;8.80;6.40;;;;;;;;;;108479;1257;40230;-34
2022/12/25 03:17:00;;;;;;;7.90;6.60;;;;;;;;;;108449;1261;42931;-34
2022/12/25 03:28:17;;;;;;;7.90;6.20;;;;;;;;;;108465;1268;42911;-34
2022/12/25 03:31:13;;;;;;;8.00;6.10;;;;;;;;;;108442;1257;44548;-34
2022/12/25 04:36:10;;;;;;;7.20;5.10;;;;;;;;;;108483;1258;42916;-35
2022/12/25 04:38:43;;;;;;;7.00;5.40;;;;;;;;;;108477;1266;41838;-35
2022/12/25 04:41:19;;;;;;;7.00;5.10;;;;;;;;;;108455;1255;38937;-35
2022/12/25 04:43:59;;;;;;;7.00;5.20;;;;;;;;;;108416;1257;39921;-35
2022/12/25 04:46:34;;;;;;;6.80;4.90;;;;;;;;;;108468;1267;42968;-35
2022/12/25 04:49:11;;;;;;;8.20;5.70;;;;;;;;;;108455;1266;41684;-35
2022/12/25 04:51:47;;;;;;;8.10;5.40;;;;;;;;;;108408;1254;38665;-35
2022/12/25 04:54:19;;;;;;;7.10;5.30;;;;;;;;;;108473;1263;40233;-35
2022/12/25 04:56:54;;;;;;;7.10;5.40;;;;;;;;;;108476;1267;42606;-35
2022/12/25 04:59:29;;;;;;;8.00;5.10;;;;;;;;;;108459;1266;41809;-35
2022/12/25 05:02:07;;;;;;;6.80;5.50;;;;;;;;;;108396;1267;38964;-35
2022/12/25 05:04:42;;;;;;;7.90;5.50;;;;;;;;;;108417;1270;40092;-35
2022/12/25 05:07:17;;;;;;;8.90;5.20;;;;;;;;;;108432;1268;42921;-35
2022/12/25 05:09:54;;;;;;;7.80;5.20;;;;;;;;;;108468;1267;41768;-35
2022/12/25 05:12:31;;;;;;;6.80;5.00;;;;;;;;;;108433;1257;38660;-35
2022/12/25 05:15:06;;;;;;;8.20;5.80;;;;;;;;;;108460;1262;41225;-35
2022/12/25 05:17:37;;;;;;;7.60;5.10;;;;;;;;;;108513;1257;42714;-35
2022/12/25 05:20:09;;;;;;;7.80;5.30;;;;;;;;;;108447;1267;41787;-35
2022/12/25 05:22:44;;;;;;;6.80;4.90;;;;;;;;;;108207;1256;321663;-35
2022/12/25 05:25:23;;;;;;;6.80;5.00;;;;;;;;;;108459;1259;40312;-35
2022/12/25 05:28:03;;;;;;;6.70;5.00;;;;;;;;;;108436;1266;42704;-35
2022/12/25 05:30:40;;;;;;;6.80;5.00;;;;;;;;;;108352;1266;175771;-35
2022/12/25 05:33:13;;;;;;;8.40;5.20;;;;;;;;;;108416;1257;38707;-35
2022/12/25 05:35:53;;;;;;;7.10;4.90;;;;;;;;;;108483;1265;40047;-35
2022/12/25 05:38:25;;;;;;;7.00;5.20;;;;;;;;;;108454;1257;43086;-35
2022/12/25 05:40:58;;;;;;;6.80;4.80;;;;;;;;;;108460;1257;41561;-35
2022/12/25 05:43:31;;;;;;;6.90;5.00;;;;;;;;;;108443;1259;44194;-35
2022/12/25 05:46:08;;;;;;;7.40;5.00;;;;;;;;;;108424;1259;39953;-35
2022/12/25 05:48:43;;;;;;;7.60;5.30;;;;;;;;;;108486;1266;44192;-35
2022/12/25 05:51:18;;;;;;;7.80;5.40;;;;;;;;;;108458;1267;41874;-34
2022/12/25 05:53:56;;;;;;;7.20;5.00;;;;;;;;;;108408;1258;44407;-34
2022/12/25 05:56:33;;;;;;;7.00;5.00;;;;;;;;;;108482;1258;41226;-34
2022/12/25 05:59:09;;;;;;;7.70;5.60;;;;;;;;;;108481;1257;42755;-34
2022/12/25 06:01:46;;;;;;;7.20;5.60;;;;;;;;;;108424;1267;43063;-34
2022/12/25 06:04:22;;;;;;;7.50;5.40;;;;;;;;;;108474;1263;45977;-34
2022/12/25 06:06:57;;;;;;;7.30;5.00;;;;;;;;;;108329;1267;175698;-34
2022/12/25 06:09:35;;;;;;;8.10;5.30;;;;;;;;;;108460;1264;44094;-34
2022/12/25 06:12:06;;;;;;;7.30;4.90;;;;;;;;;;108383;1254;41653;-34
2022/12/25 06:14:37;;;;;;;6.70;4.90;;;;;;;;;;108508;1258;38853;-34
2022/12/25 06:17:08;;;;;;;7.60;5.20;;;;;;;;;;108438;1253;41391;-34
2022/12/25 06:19:50;;;;;;;6.70;5.10;;;;;;;;;;108473;1257;42767;-34
2022/12/25 06:22:28;;;;;;;7.20;5.00;;;;;;;;;;108387;1254;43585;-34
2022/12/25 06:25:05;;;;;;;6.90;5.40;;;;;;;;;;108477;1260;40149;-34
2022/12/25 06:27:39;;;;;;;7.20;5.40;;;;;;;;;;108489;1259;40273;-34
2022/12/25 06:30:15;;;;;;;7.30;5.20;;;;;;;;;;108455;1267;43154;-34
2022/12/25 06:32:50;;;;;;;7.50;4.90;;;;;;;;;;108444;1253;41711;-34
2022/12/25 06:35:26;;;;;;;6.40;4.60;;;;;;;;;;108437;1266;39198;-34
2022/12/25 06:38:01;;;;;;;7.10;4.80;;;;;;;;;;108465;1257;40096;-34
2022/12/25 06:40:36;;;;;;;7.10;4.90;;;;;;;;;;108472;1267;42974;-34
2022/12/25 06:43:09;;;;;;;7.80;5.10;;;;;;;;;;108392;1259;43158;-34
2022/12/25 06:45:42;;;;;;;7.70;5.50;;;;;;;;;;108445;1266;38787;-34
2022/12/25 06:48:13;;;;;;;7.70;5.40;;;;;;;;;;108466;1266;41090;-34
2022/12/25 06:50:44;;;;;;;7.30;5.40;;;;;;;;;;108443;1263;42782;-34
2022/12/25 06:53:21;;;;;;;8.20;5.50;;;;;;;;;;108445;1253;42039;-34
2022/12/25 06:56:02;;;;;;;7.90;5.80;;;;;;;;;;108454;1257;39025;-34
2022/12/25 06:58:37;;;;;;;7.30;5.10;;;;;;;;;;108464;1262;40035;-34
2022/12/25 07:01:14;;;;;;;8.40;5.60;;;;;;;;;;108487;1265;42924;-34
2022/12/25 07:03:52;;;;;;;7.90;5.40;;;;;;;;;;108378;1269;41474;-34
2022/12/25 07:06:28;;;;;;;7.80;5.60;;;;;;;;;;108526;1266;38787;-34
2022/12/25 07:09:03;;;;;;;8.70;5.30;;;;;;;;;;108373;1266;175378;-34
2022/12/25 07:11:41;;;;;;;7.60;5.30;;;;;;;;;;108436;1259;42852;-34
2022/12/25 07:14:20;;;;;;;8.60;5.90;;;;;;;;;;108430;1257;42031;-34
2022/12/25 07:16:59;;;;;;;8.20;5.80;;;;;;;;;;108490;1267;39095;-34
2022/12/25 07:19:42;;;;;;;7.80;6.00;;;;;;;;;;108453;1260;39954;-35
2022/12/25 07:22:18;;;;;;;8.70;6.30;;;;;;;;;;108463;1258;43086;-35
2022/12/25 07:24:53;;;;;;;8.70;5.90;;;;;;;;;;108413;1260;41809;-35
2022/12/25 07:27:31;;;;;;;7.40;5.40;;;;;;;;;;108450;1260;38626;-35
2022/12/25 07:30:09;;;;;;;8.10;6.00;;;;;;;;;;108434;1266;40189;-35
2022/12/25 07:32:47;;;;;;;8.70;6.00;;;;;;;;;;108483;1266;42784;-35
2022/12/25 07:35:27;;;;;;;8.50;5.70;;;;;;;;;;108424;1258;44276;-35
2022/12/25 07:38:03;;;;;;;9.40;6.30;;;;;;;;;;108470;1266;38915;-35
2022/12/25 07:40:37;;;;;;;9.20;6.30;;;;;;;;;;108446;1265;40086;-35
2022/12/25 07:43:15;;;;;;;9.20;6.40;;;;;;;;;;108471;1269;42965;-35
2022/12/25 07:45:54;;;;;;;8.80;6.10;;;;;;;;;;108388;1259;42021;-35
2022/12/25 07:48:32;;;;;;;8.30;6.00;;;;;;;;;;108474;1265;38790;-35
2022/12/25 07:51:10;;;;;;;8.70;6.20;;;;;;;;;;108445;1269;39998;-35
2022/12/25 07:53:47;;;;;;;7.50;5.40;;;;;;;;;;108447;1260;42946;-34
2022/12/25 07:56:21;;;;;;;8.40;5.90;;;;;;;;;;108428;1258;48943;-34
2022/12/25 07:58:59;;;;;;;8.50;5.80;;;;;;;;;;108481;1258;38626;-36
2022/12/25 08:01:34;;;;;;;8.90;6.10;;;;;;;;;;108450;1265;40507;-37
2022/12/25 08:04:10;;;;;;;9.20;6.10;;;;;;;;;;108455;1256;43013;-37
2022/12/25 08:06:43;;;;;;;9.80;6.40;;;;;;;;;;108433;1267;47723;-37
2022/12/25 08:09:16;;;;;;;8.20;6.20;;;;;;;;;;108418;1260;37896;-36
2022/12/25 08:11:52;;;;;;;8.30;6.00;;;;;;;;;;108329;1270;193469;-35
2022/12/25 08:14:27;;;;;;;8.70;6.20;;;;;;;;;;108416;1267;42865;-35
2022/12/25 08:17:08;;;;;;;9.80;6.70;;;;;;;;;;108458;1267;48018;-35
2022/12/25 08:19:44;;;;;;;8.40;5.80;;;;;;;;;;108445;1265;38820;-35
2022/12/25 08:22:17;;;;;;;8.60;6.60;;;;;;;;;;108466;1258;39751;-35
2022/12/25 08:24:51;;;;;;;9.20;6.20;;;;;;;;;;108410;1258;42944;-33
2022/12/25 08:27:29;;;;;;;8.60;6.30;;;;;;;;;;108486;1259;49302;-33
2022/12/25 08:30:01;;;;;;;9.40;6.50;;;;;;;;;;108407;1267;39313;-33
2022/12/25 08:32:40;;;;;;;9.00;6.40;;;;;;;;;;108384;1259;40139;-33
2022/12/25 08:35:15;;;;;;;8.60;6.60;;;;;;;;;;108414;1253;42862;-33
2022/12/25 08:37:50;;;;;;;8.60;6.30;;;;;;;;;;108484;1266;41905;-33
2022/12/25 08:40:24;;;;;;;9.20;6.50;;;;;;;;;;108486;1259;38940;-34
2022/12/25 08:43:03;;;;;;;8.10;5.90;;;;;;;;;;108517;1258;40330;-34
2022/12/25 08:45:42;;;;;;;8.90;6.50;;;;;;;;;;108402;1254;42972;-34
2022/12/25 08:48:13;;;;;;;8.80;6.40;;;;;;;;;;108453;1267;41807;-34
2022/12/25 08:50:47;;;;;;;10.50;6.90;;;;;;;;;;108493;1263;39056;-34
2022/12/25 08:53:20;;;;;;;9.20;6.30;;;;;;;;;;108472;1261;40022;-34
2022/12/25 08:55:57;;;;;;;9.10;6.60;;;;;;;;;;108419;1266;42784;-34
2022/12/25 08:58:27;;;;;;;9.70;6.80;;;;;;;;;;108463;1257;43252;-34
2022/12/25 09:01:00;;;;;;;9.10;6.90;;;;;;;;;;108500;1262;38864;-34
2022/12/25 09:03:33;;;;;;;9.50;6.50;;;;;;;;;;108463;1257;40077;-34
2022/12/25 09:06:08;;;;;;;9.80;6.60;;;;;;;;;;108420;1254;43194;-34
2022/12/25 09:08:44;;;;;;;9.00;6.80;;;;;;;;;;108341;1266;175693;-33
2022/12/25 09:11:26;;;;;;;9.00;7.10;;;;;;;;;;108494;1263;39090;-33
2022/12/25 09:14:04;;;;;;;9.30;6.40;;;;;;;;;;108442;1266;40059;-33
2022/12/25 09:16:45;;;;;;;9.60;6.70;;;;;;;;;;108438;1257;44230;-33
2022/12/25 09:19:25;;;;;;;8.60;6.70;;;;;;;;;;108479;1267;43325;-33
2022/12/25 09:22:00;;;;;;;8.90;6.00;;;;;;;;;;108454;1257;38810;-33
2022/12/25 09:24:38;;;;;;;9.70;6.40;;;;;;;;;;108472;1258;40483;-34
2022/12/25 09:27:15;;;;;;;9.60;7.30;;;;;;;;;;108425;1259;44061;-34
2022/12/25 09:29:50;;;;;;;9.30;7.00;;;;;;;;;;108429;1261;41872;-34
2022/12/25 09:32:26;;;;;;;8.40;6.30;;;;;;;;;;108461;1260;38828;-34
2022/12/25 09:35:05;;;;;;;7.80;6.10;;;;;;;;;;108432;1259;41463;-34
2022/12/25 09:37:38;;;;;;;8.60;6.70;;;;;;;;;;108400;1257;42876;-34
2022/12/25 09:40:14;;;;;;;8.10;5.90;;;;;;;;;;108461;1267;43096;-36
2022/12/25 09:42:48;;;;;;;9.90;6.80;;;;;;;;;;108468;1263;40132;-37
2022/12/25 09:45:31;;;;;;;7.90;6.10;;;;;;;;;;108434;1255;40080;-37
2022/12/25 09:48:08;;;;;;;8.60;6.10;;;;;;;;;;108337;1259;44174;-37
2022/12/25 09:50:50;;;;;;;8.80;6.10;;;;;;;;;;108402;1260;43197;-37
2022/12/25 09:53:29;;;;;;;9.30;6.30;;;;;;;;;;107793;1266;911651;-37
2022/12/25 09:56:08;;;;;;;10.10;6.90;;;;;;;;;;108453;1258;40259;-37
2022/12/25 09:58:44;;;;;;;15.10;7.50;;;;;;;;;;108390;1259;43397;-37
2022/12/25 10:01:26;;;;;;;15.70;8.20;;;;;;;;;;108478;1257;43148;-37
2022/12/25 10:04:29;;;;;;;14.40;8.00;;;;;;;;;;108449;1265;38994;-35
2022/12/25 10:07:18;;;;;;;13.90;7.40;;;;;;;;;;108414;1254;40104;-35
2022/12/25 10:10:03;;;;;;;16.10;8.10;;;;;;;;;;108501;1266;43022;-35
2022/12/25 10:12:48;;;;;;;15.10;9.10;;;;;;;;;;108460;1267;41894;-35
2022/12/25 10:15:32;;;;;;;15.20;8.50;;;;;;;;;;108441;1260;39993;-35
2022/12/25 10:18:26;;;;;;;15.80;8.60;;;;;;;;;;108485;1257;40072;-34
2022/12/25 10:20:59;;;;;;;;;;;;;;;;;;108525;1260;42725;-33
2022/12/25 10:23:40;;;;;;;17.40;8.30;;;;;;;;;;108527;1269;41358;-35
2022/12/25 10:26:16;;;;;;;17.30;8.90;;;;;;;;;;108470;1257;38808;-37
2022/12/25 10:28:53;;;;;;;14.90;8.90;;;;;;;;;;108466;1257;40132;-34
2022/12/25 10:31:29;;;;;;;14.40;8.70;;;;;;;;;;108485;1266;42888;-33
2022/12/25 10:34:01;;;;;;;14.50;9.00;;;;;;;;;;108471;1257;43177;-33
2022/12/25 10:36:35;;;;;;;17.80;9.00;;;;;;;;;;108528;1258;38912;-33
2022/12/25 10:39:09;;;;;;;15.00;8.80;;;;;;;;;;108456;1257;40030;-33
2022/12/25 10:42:10;;;;;;;15.60;9.30;;;;;;;;;;108528;1265;42931;-33
2022/12/25 10:44:56;;;;;;;16.90;9.80;;;;;;;;;;108525;1266;41836;-33
2022/12/25 10:47:26;;;;;;;;;;;;;;;;;;108528;1253;38886;-33
2022/12/25 10:50:05;;;;;;;15.10;9.40;;;;;;;;;;108464;1257;40199;-37
2022/12/25 10:52:58;;;;;;;14.80;8.80;;;;;;;;;;108451;1263;44090;-37
2022/12/25 10:55:31;;;;;;;14.90;8.60;;;;;;;;;;108476;1260;41897;-35
2022/12/25 10:58:05;;;;;;;14.50;8.60;;;;;;;;;;108497;1253;38887;-35
2022/12/25 11:00:43;;;;;;;15.00;8.20;;;;;;;;;;108521;1258;40332;-35
2022/12/25 11:03:24;;;;;;;13.80;8.50;;;;;;;;;;108494;1258;43193;-35
2022/12/25 11:05:57;;;;;;;13.90;8.20;;;;;;;;;;108532;1262;41952;-35
2022/12/25 11:08:39;;;;;;;12.80;8.20;;;;;;;;;;108455;1254;39218;-35
2022/12/25 11:11:22;;;;;;;12.10;8.40;;;;;;;;;;108490;1261;40064;-35
2022/12/25 11:13:58;;;;;;;12.40;8.20;;;;;;;;;;108478;1263;42842;-35
2022/12/25 11:16:29;;;;;;;;;;;;;;;;;;108506;1266;42000;-37
2022/12/25 11:19:19;;;;;;;13.70;8.00;;;;;;;;;;108480;1263;39034;-37
2022/12/25 11:21:56;;;;;;;11.00;7.90;;;;;;;;;;108494;1267;40349;-37
2022/12/25 11:24:31;;;;;;;12.20;8.40;;;;;;;;;;108521;1257;43077;-37
2022/12/25 11:27:20;;;;;;;11.90;7.50;;;;;;;;;;108496;1265;41702;-37
2022/12/25 11:29:55;;;;;;;10.60;7.60;;;;;;;;;;108476;1259;40068;-37
2022/12/25 11:32:40;;;;;;;10.10;7.20;;;;;;;;;;108485;1253;41515;-37
2022/12/25 11:35:17;;;;;;;11.50;8.10;;;;;;;;;;108499;1260;43354;-37
2022/12/25 11:37:53;;;;;;;11.90;7.20;;;;;;;;;;108480;1267;41824;-37
2022/12/25 11:40:40;;;;;;;11.20;7.40;;;;;;;;;;108489;1259;38779;-37
2022/12/25 11:43:19;;;;;;;12.90;7.40;;;;;;;;;;108512;1269;40161;-37
2022/12/25 11:45:58;;;;;;;11.40;6.70;;;;;;;;;;108507;1262;43029;-37
2022/12/25 11:48:41;;;;;;;10.90;7.40;;;;;;;;;;108514;1259;41857;-37
2022/12/25 11:51:15;;;;;;;12.00;7.00;;;;;;;;;;108429;1255;38925;-37
2022/12/25 11:53:56;;;;;;;11.40;7.00;;;;;;;;;;108483;1266;40137;-36
2022/12/25 11:56:31;;;;;;;14.30;7.00;;;;;;;;;;108459;1266;43176;-36
2022/12/25 11:59:10;;;;;;;10.20;7.20;;;;;;;;;;108330;1268;41879;-35
2022/12/25 12:01:58;;;;;;;9.90;6.80;;;;;;;;;;108358;1261;44719;-36
2022/12/25 12:04:43;;;;;;;10.00;6.80;;;;;;;;;;108349;1258;40328;-36
2022/12/25 12:07:26;;;;;;;11.00;6.70;;;;;;;;;;108384;1268;43393;-36
2022/12/25 12:10:10;;;;;;;10.80;7.00;;;;;;;;;;108294;1255;42221;-36
2022/12/25 12:12:53;;;;;;;11.20;7.30;;;;;;;;;;108379;1257;38958;-36
2022/12/25 12:15:30;;;;;;;10.30;6.30;;;;;;;;;;108353;1269;40243;-36
2022/12/25 12:18:22;;;;;;;9.90;7.10;;;;;;;;;;108353;1270;43028;-36
2022/12/25 12:21:20;;;;;;;9.20;7.00;;;;;;;;;;108355;1253;43167;-36
2022/12/25 12:24:02;;;;;;;9.60;6.60;;;;;;;;;;108489;1269;38951;-32
2022/12/25 12:26:42;;;;;;;9.30;6.40;;;;;;;;;;108409;1259;39976;-33
2022/12/25 12:29:30;;;;;;;15.40;11.60;;;;;;;;;;108307;1261;42933;-33
2022/12/25 12:32:05;;;;;;;47.90;42.90;;;;;;;;;;108363;1258;42161;-32
2022/12/25 12:34:49;;;;;;;43.90;39.30;;;;;;;;;;108297;1259;38613;-32
2022/12/25 12:37:25;;;;;;;58.10;52.30;;;;;;;;;;108921;1258;40334;-33
2022/12/25 12:40:01;;;;;;;42.30;38.00;;;;;;;;;;108367;1267;43642;-33
2022/12/25 12:42:39;;;;;;;28.40;25.50;;;;;;;;;;108402;1257;49947;-33
2022/12/25 12:45:21;;;;;;;31.70;28.50;;;;;;;;;;108581;1257;39020;-35
2022/12/25 12:47:56;;;;;;;31.00;27.90;;;;;;;;;;108563;1257;40114;-35
2022/12/25 12:50:36;;;;;;;31.40;28.40;;;;;;;;;;108506;1266;43081;-35
2022/12/25 12:53:38;;;;;;;25.70;23.20;;;;;;;;;;108330;1259;175678;-35
2022/12/25 12:56:20;;;;;;;23.90;21.50;;;;;;;;;;108271;1269;38782;-35
2022/12/25 12:58:58;;;;;;;22.00;19.70;;;;;;;;;;108463;1260;40033;-35
2022/12/25 13:01:47;;;;;;;22.70;19.70;;;;;;;;;;108491;1256;43108;-37
2022/12/25 13:04:55;;;;;;;20.50;18.40;;;;;;;;;;108505;1266;43217;-36
2022/12/25 13:07:53;;;;;;;19.40;17.40;;;;;;;;;;108571;1266;38872;-36
2022/12/25 13:10:32;;;;;;;19.70;16.30;;;;;;;;;;108513;1253;41159;-35
2022/12/25 13:13:06;;;;;;;19.60;15.80;;;;;;;;;;108447;1254;44057;-33
2022/12/25 13:15:46;;;;;;;18.90;15.90;;;;;;;;;;108448;1270;42006;-33
2022/12/25 13:18:19;;;;;;;17.20;14.60;;;;;;;;;;108483;1259;38674;-33
2022/12/25 13:20:56;;;;;;;17.40;15.60;;;;;;;;;;108455;1260;40197;-34
2022/12/25 13:23:34;;;;;;;16.60;14.80;;;;;;;;;;108374;1266;256518;-35
2022/12/25 13:26:14;;;;;;;16.20;14.50;;;;;;;;;;108610;1257;41809;-34
2022/12/25 13:28:47;;;;;;;15.80;14.20;;;;;;;;;;108590;1266;38728;-34
2022/12/25 13:31:25;;;;;;;15.90;14.10;;;;;;;;;;108461;1254;175626;-33
2022/12/25 13:34:07;;;;;;;15.80;14.10;;;;;;;;;;108426;1258;49434;-33
2022/12/25 13:36:40;;;;;;;16.40;14.30;;;;;;;;;;108356;1260;42061;-33
2022/12/25 13:39:18;;;;;;;15.60;13.90;;;;;;;;;;108437;1257;38596;-33
2022/12/25 13:42:09;;;;;;;15.50;13.90;;;;;;;;;;108417;1266;41401;-33
2022/12/25 13:44:44;;;;;;;;;;;;;;;;;;108583;1257;49388;-33
2022/12/25 13:47:25;;;;;;;15.00;13.40;;;;;;;;;;108592;1257;41436;-33
2022/12/25 13:50:00;;;;;;;14.70;12.70;;;;;;;;;;108564;1269;40002;-33
2022/12/25 13:52:37;;;;;;;14.40;12.90;;;;;;;;;;108542;1257;40133;-33
2022/12/25 13:55:15;;;;;;;14.40;12.90;;;;;;;;;;108487;1263;42672;-33
2022/12/25 13:57:51;;;;;;;13.90;12.50;;;;;;;;;;108474;1266;43644;-33
2022/12/25 14:00:30;;;;;;;14.40;12.90;;;;;;;;;;108454;1266;38858;-33
2022/12/25 14:03:17;;;;;;;14.60;13.10;;;;;;;;;;108451;1254;40247;-33
2022/12/25 14:05:56;;;;;;;14.40;12.50;;;;;;;;;;108577;1266;42764;-33
2022/12/25 14:08:31;;;;;;;14.30;12.70;;;;;;;;;;108581;1266;41696;-33
2022/12/25 14:11:06;;;;;;;14.10;12.60;;;;;;;;;;108531;1269;38703;-33
2022/12/25 14:13:46;;;;;;;14.20;12.80;;;;;;;;;;108524;1260;40025;-33
2022/12/25 14:16:18;;;;;;;13.20;11.80;;;;;;;;;;108341;1269;42777;-34
2022/12/25 14:18:57;;;;;;;13.60;12.00;;;;;;;;;;108452;1269;42962;-34
2022/12/25 14:21:37;;;;;;;13.00;11.60;;;;;;;;;;108480;1260;38861;-34
2022/12/25 14:24:13;;;;;;;12.90;11.50;;;;;;;;;;108512;1257;40036;-35
2022/12/25 14:26:44;;;;;;;13.10;11.80;;;;;;;;;;108599;1257;42845;-34
2022/12/25 14:29:17;;;;;;;12.80;11.50;;;;;;;;;;108629;1269;41705;-34
2022/12/25 14:31:56;;;;;;;12.80;11.40;;;;;;;;;;108619;1266;38942;-34
2022/12/25 14:34:31;;;;;;;12.20;10.80;;;;;;;;;;108506;1258;41357;-34
2022/12/25 14:37:02;;;;;;;13.20;11.10;;;;;;;;;;108459;1266;42767;-34
2022/12/25 14:39:37;;;;;;;13.80;11.00;;;;;;;;;;108463;1270;43158;-34
2022/12/25 14:42:21;;;;;;;12.50;11.20;;;;;;;;;;108475;1260;39997;-34
2022/12/25 14:45:02;;;;;;;13.40;11.20;;;;;;;;;;108516;1257;40264;-34
2022/12/25 14:47:48;;;;;;;13.60;11.40;;;;;;;;;;108604;1257;43003;-34
2022/12/25 14:50:31;;;;;;;12.00;10.70;;;;;;;;;;108593;1257;42131;-34
2022/12/25 14:53:01;;;;;;;12.30;11.00;;;;;;;;;;108629;1257;39022;-34
2022/12/25 14:55:31;;;;;;;14.50;11.90;;;;;;;;;;108470;1259;40443;-34
2022/12/25 14:58:07;;;;;;;12.20;10.90;;;;;;;;;;108499;1264;44038;-33
2022/12/25 15:00:39;;;;;;;12.50;11.10;;;;;;;;;;108494;1259;41921;-33
2022/12/25 15:03:23;;;;;;;12.70;11.40;;;;;;;;;;108496;1260;38894;-34
2022/12/25 15:06:01;;;;;;;14.10;11.40;;;;;;;;;;108413;1257;175616;-35
2022/12/25 15:08:33;;;;;;;12.90;11.40;;;;;;;;;;108639;1257;42763;-35
2022/12/25 15:11:03;;;;;;;13.50;10.80;;;;;;;;;;108595;1265;41938;-35
2022/12/25 15:13:36;;;;;;;11.60;10.40;;;;;;;;;;108601;1263;38691;-35
2022/12/25 15:16:13;;;;;;;13.10;10.90;;;;;;;;;;108490;1257;40418;-35
2022/12/25 15:18:50;;;;;;;12.10;10.80;;;;;;;;;;108477;1254;44113;-34
2022/12/25 15:21:27;;;;;;;12.10;10.90;;;;;;;;;;108496;1254;43072;-34
2022/12/25 15:23:59;;;;;;;12.80;11.00;;;;;;;;;;108488;1262;38687;-34
2022/12/25 15:26:32;;;;;;;12.10;10.30;;;;;;;;;;108514;1257;39855;-34
2022/12/25 15:29:02;;;;;;;;;;;;;;;;;;108576;1257;42791;-34
2022/12/25 15:31:38;;;;;;;11.10;10.00;;;;;;;;;;108442;1269;41345;-34
2022/12/25 15:34:19;;;;;;;11.10;9.90;;;;;;;;;;108520;1260;38947;-33
2022/12/25 15:36:51;;;;;;;11.80;9.90;;;;;;;;;;108594;1258;45651;-33
2022/12/25 15:39:23;;;;;;;11.20;9.90;;;;;;;;;;108476;1260;43040;-33
2022/12/25 15:42:11;;;;;;;12.40;10.70;;;;;;;;;;108477;1260;41828;-33
2022/12/25 15:44:42;;;;;;;11.40;10.20;;;;;;;;;;108508;1269;38940;-33
2022/12/25 15:47:15;;;;;;;11.40;9.50;;;;;;;;;;108565;1253;41148;-33
2022/12/25 15:49:48;;;;;;;11.80;10.40;;;;;;;;;;108577;1266;42673;-33
2022/12/25 15:52:21;;;;;;;11.40;9.90;;;;;;;;;;108588;1256;41875;-33
2022/12/25 15:54:52;;;;;;;11.80;10.30;;;;;;;;;;108573;1257;38898;-33
2022/12/25 15:57:25;;;;;;;11.10;9.90;;;;;;;;;;108475;1259;40230;-34
2022/12/25 15:59:57;;;;;;;11.00;9.50;;;;;;;;;;108504;1266;42742;-34
2022/12/25 16:02:30;;;;;;;11.40;9.80;;;;;;;;;;108489;1263;41767;-34
2022/12/25 16:05:01;;;;;;;11.00;9.80;;;;;;;;;;108503;1270;38869;-34
2022/12/25 16:07:39;;;;;;;11.90;10.20;;;;;;;;;;108570;1261;46750;-34
2022/12/25 16:10:16;;;;;;;9.90;8.90;;;;;;;;;;108467;1266;42402;-34
2022/12/25 16:12:46;;;;;;;10.60;9.10;;;;;;;;;;108594;1269;44058;-34
2022/12/25 16:15:19;;;;;;;10.90;9.20;;;;;;;;;;108564;1266;38863;-34
2022/12/25 16:17:51;;;;;;;11.90;9.30;;;;;;;;;;108427;1260;40048;-34
2022/12/25 16:20:23;;;;;;;12.40;9.70;;;;;;;;;;108452;1260;43003;-34
2022/12/25 16:22:53;;;;;;;10.70;9.40;;;;;;;;;;108440;1261;41952;-34
2022/12/25 16:25:25;;;;;;;10.70;9.20;;;;;;;;;;108467;1260;40244;-34
2022/12/25 16:27:57;;;;;;;10.70;8.90;;;;;;;;;;108558;1257;41241;-34
2022/12/25 16:30:31;;;;;;;10.30;8.90;;;;;;;;;;108580;1266;42834;-34
2022/12/25 16:33:04;;;;;;;11.90;8.80;;;;;;;;;;108594;1267;41770;-34
2022/12/25 16:35:42;;;;;;;10.60;8.80;;;;;;;;;;108434;1270;175666;-34
2022/12/25 16:38:13;;;;;;;10.30;8.90;;;;;;;;;;108422;1260;41285;-34
2022/12/25 16:40:46;;;;;;;10.90;9.30;;;;;;;;;;108471;1260;42931;-34
2022/12/25 16:43:16;;;;;;;10.00;8.30;;;;;;;;;;108450;1268;41982;-33
2022/12/25 16:45:58;;;;;;;10.80;8.90;;;;;;;;;;108467;1266;38876;-33
2022/12/25 16:48:31;;;;;;;10.40;8.70;;;;;;;;;;108570;1257;46845;-34
2022/12/25 16:51:09;;;;;;;10.20;9.10;;;;;;;;;;108572;1257;42775;-34
2022/12/25 16:53:39;;;;;;;9.70;8.40;;;;;;;;;;108596;1262;41711;-34
2022/12/25 16:56:15;;;;;;;10.60;8.40;;;;;;;;;;108522;1266;38866;-34
2022/12/25 16:58:47;;;;;;;11.10;8.90;;;;;;;;;;108413;1258;46079;-34
2022/12/25 17:01:19;;;;;;;9.80;8.20;;;;;;;;;;108490;1266;42819;-34
2022/12/25 17:03:53;;;;;;;11.60;8.60;;;;;;;;;;108499;1260;41684;-34
2022/12/25 17:06:29;;;;;;;10.50;8.70;;;;;;;;;;108484;1270;38705;-34